sensor_id;sensor_type;location;lat;lon;timestamp;P1;durP1;ratioP1;P2;durP2;ratioP2
70981;SDS011;58640;51.320;9.456;2023-07-13T00:00:26;4.20;;;1.23;;
70981;SDS011;58640;51.320;9.456;2023-07-13T00:02:52;5.75;;;1.52;;
70981;SDS011;58640;51.320;9.456;2023-07-13T00:05:21;5.55;;;1.63;;
70981;SDS011;58640;51.320;9.456;2023-07-13T00:07:47;4.75;;;1.02;;
70981;SDS011;58640;51.320;9.456;2023-07-13T00:10:13;6.70;;;1.55;;
70981;SDS011;58640;51.320;9.456;2023-07-13T00:12:38;5.65;;;1.50;;
70981;SDS011;58640;51.320;9.456;2023-07-13T00:15:06;7.47;;;1.60;;
70981;SDS011;58640;51.320;9.456;2023-07-13T00:17:36;7.47;;;1.58;;
70981;SDS011;58640;51.320;9.456;2023-07-13T00:20:04;3.90;;;1.13;;
70981;SDS011;58640;51.320;9.456;2023-07-13T00:22:29;6.78;;;1.65;;
70981;SDS011;58640;51.320;9.456;2023-07-13T00:24:55;1.67;;;1.10;;
70981;SDS011;58640;51.320;9.456;2023-07-13T00:27:21;2.85;;;1.13;;
70981;SDS011;58640;51.320;9.456;2023-07-13T00:29:47;2.58;;;1.10;;
70981;SDS011;58640;51.320;9.456;2023-07-13T00:32:12;5.18;;;1.65;;
70981;SDS011;58640;51.320;9.456;2023-07-13T00:34:38;4.80;;;1.60;;
70981;SDS011;58640;51.320;9.456;2023-07-13T00:37:04;7.45;;;1.70;;
70981;SDS011;58640;51.320;9.456;2023-07-13T00:39:31;3.28;;;1.27;;
70981;SDS011;58640;51.320;9.456;2023-07-13T00:41:58;3.08;;;1.30;;
70981;SDS011;58640;51.320;9.456;2023-07-13T00:44:24;6.43;;;1.95;;
70981;SDS011;58640;51.320;9.456;2023-07-13T00:46:49;2.95;;;1.27;;
70981;SDS011;58640;51.320;9.456;2023-07-13T00:49:18;6.82;;;1.50;;
70981;SDS011;58640;51.320;9.456;2023-07-13T00:51:48;3.75;;;1.25;;
70981;SDS011;58640;51.320;9.456;2023-07-13T00:54:30;3.85;;;1.38;;
70981;SDS011;58640;51.320;9.456;2023-07-13T00:57:00;4.72;;;1.58;;
70981;SDS011;58640;51.320;9.456;2023-07-13T00:59:28;9.38;;;1.50;;
70981;SDS011;58640;51.320;9.456;2023-07-13T01:01:55;4.78;;;1.15;;
70981;SDS011;58640;51.320;9.456;2023-07-13T01:04:23;5.97;;;1.55;;
70981;SDS011;58640;51.320;9.456;2023-07-13T01:06:50;7.03;;;1.70;;
70981;SDS011;58640;51.320;9.456;2023-07-13T01:09:15;6.35;;;1.27;;
70981;SDS011;58640;51.320;9.456;2023-07-13T01:11:41;5.53;;;1.50;;
70981;SDS011;58640;51.320;9.456;2023-07-13T01:14:07;5.40;;;1.38;;
70981;SDS011;58640;51.320;9.456;2023-07-13T01:16:34;2.20;;;1.20;;
70981;SDS011;58640;51.320;9.456;2023-07-13T01:19:00;5.80;;;1.60;;
70981;SDS011;58640;51.320;9.456;2023-07-13T01:21:29;6.38;;;1.73;;
70981;SDS011;58640;51.320;9.456;2023-07-13T01:23:57;3.95;;;1.55;;
70981;SDS011;58640;51.320;9.456;2023-07-13T01:26:23;4.32;;;1.30;;
70981;SDS011;58640;51.320;9.456;2023-07-13T01:28:48;7.75;;;1.40;;
70981;SDS011;58640;51.320;9.456;2023-07-13T01:31:13;7.10;;;1.80;;
70981;SDS011;58640;51.320;9.456;2023-07-13T01:33:39;5.60;;;1.40;;
70981;SDS011;58640;51.320;9.456;2023-07-13T01:36:09;3.08;;;1.10;;
70981;SDS011;58640;51.320;9.456;2023-07-13T01:38:36;5.97;;;1.20;;
70981;SDS011;58640;51.320;9.456;2023-07-13T01:41:02;2.35;;;1.05;;
70981;SDS011;58640;51.320;9.456;2023-07-13T01:43:28;3.50;;;1.38;;
70981;SDS011;58640;51.320;9.456;2023-07-13T01:45:53;4.03;;;1.55;;
70981;SDS011;58640;51.320;9.456;2023-07-13T01:48:19;3.63;;;1.58;;
70981;SDS011;58640;51.320;9.456;2023-07-13T01:50:45;4.50;;;1.17;;
70981;SDS011;58640;51.320;9.456;2023-07-13T01:53:11;4.20;;;1.23;;
70981;SDS011;58640;51.320;9.456;2023-07-13T01:55:36;2.47;;;1.10;;
70981;SDS011;58640;51.320;9.456;2023-07-13T01:58:02;2.95;;;1.40;;
70981;SDS011;58640;51.320;9.456;2023-07-13T02:00:28;6.78;;;1.13;;
70981;SDS011;58640;51.320;9.456;2023-07-13T02:02:53;4.30;;;1.70;;
70981;SDS011;58640;51.320;9.456;2023-07-13T02:05:19;3.20;;;1.10;;
70981;SDS011;58640;51.320;9.456;2023-07-13T02:07:44;3.67;;;1.33;;
70981;SDS011;58640;51.320;9.456;2023-07-13T02:10:11;6.68;;;1.80;;
70981;SDS011;58640;51.320;9.456;2023-07-13T02:12:37;5.18;;;1.88;;
70981;SDS011;58640;51.320;9.456;2023-07-13T02:15:02;5.90;;;1.35;;
70981;SDS011;58640;51.320;9.456;2023-07-13T02:17:29;2.63;;;1.38;;
70981;SDS011;58640;51.320;9.456;2023-07-13T02:19:54;4.47;;;2.10;;
70981;SDS011;58640;51.320;9.456;2023-07-13T02:22:20;4.93;;;1.60;;
70981;SDS011;58640;51.320;9.456;2023-07-13T02:24:45;2.72;;;1.60;;
70981;SDS011;58640;51.320;9.456;2023-07-13T02:27:11;4.68;;;1.75;;
70981;SDS011;58640;51.320;9.456;2023-07-13T02:29:36;9.05;;;3.17;;
70981;SDS011;58640;51.320;9.456;2023-07-13T02:32:02;4.25;;;2.00;;
70981;SDS011;58640;51.320;9.456;2023-07-13T02:34:27;6.85;;;2.45;;
70981;SDS011;58640;51.320;9.456;2023-07-13T02:36:53;4.45;;;1.60;;
70981;SDS011;58640;51.320;9.456;2023-07-13T02:39:18;5.85;;;1.80;;
70981;SDS011;58640;51.320;9.456;2023-07-13T02:41:44;2.53;;;1.52;;
70981;SDS011;58640;51.320;9.456;2023-07-13T02:44:09;2.95;;;1.67;;
70981;SDS011;58640;51.320;9.456;2023-07-13T02:46:35;4.90;;;2.05;;
70981;SDS011;58640;51.320;9.456;2023-07-13T02:49:02;5.25;;;1.60;;
70981;SDS011;58640;51.320;9.456;2023-07-13T02:51:28;6.68;;;2.08;;
70981;SDS011;58640;51.320;9.456;2023-07-13T02:53:54;5.55;;;2.03;;
70981;SDS011;58640;51.320;9.456;2023-07-13T02:56:24;4.07;;;1.80;;
70981;SDS011;58640;51.320;9.456;2023-07-13T02:58:53;4.72;;;1.60;;
70981;SDS011;58640;51.320;9.456;2023-07-13T03:01:20;6.95;;;1.75;;
70981;SDS011;58640;51.320;9.456;2023-07-13T03:03:46;4.97;;;1.63;;
70981;SDS011;58640;51.320;9.456;2023-07-13T03:06:13;4.78;;;1.50;;
70981;SDS011;58640;51.320;9.456;2023-07-13T03:08:39;5.93;;;1.90;;
70981;SDS011;58640;51.320;9.456;2023-07-13T03:11:06;4.88;;;1.40;;
70981;SDS011;58640;51.320;9.456;2023-07-13T03:13:35;5.97;;;2.05;;
70981;SDS011;58640;51.320;9.456;2023-07-13T03:16:01;2.92;;;1.52;;
70981;SDS011;58640;51.320;9.456;2023-07-13T03:18:27;4.57;;;1.67;;
70981;SDS011;58640;51.320;9.456;2023-07-13T03:20:53;7.55;;;1.58;;
70981;SDS011;58640;51.320;9.456;2023-07-13T03:23:19;4.18;;;1.58;;
70981;SDS011;58640;51.320;9.456;2023-07-13T03:25:45;5.60;;;1.48;;
70981;SDS011;58640;51.320;9.456;2023-07-13T03:28:11;4.32;;;1.38;;
70981;SDS011;58640;51.320;9.456;2023-07-13T03:30:37;3.90;;;1.42;;
70981;SDS011;58640;51.320;9.456;2023-07-13T03:33:03;3.67;;;1.30;;
70981;SDS011;58640;51.320;9.456;2023-07-13T03:35:28;7.00;;;1.23;;
70981;SDS011;58640;51.320;9.456;2023-07-13T03:37:54;4.15;;;1.48;;
70981;SDS011;58640;51.320;9.456;2023-07-13T03:40:19;4.28;;;1.45;;
70981;SDS011;58640;51.320;9.456;2023-07-13T03:42:45;4.57;;;1.50;;
70981;SDS011;58640;51.320;9.456;2023-07-13T03:45:11;4.95;;;1.48;;
70981;SDS011;58640;51.320;9.456;2023-07-13T03:47:36;5.32;;;1.40;;
70981;SDS011;58640;51.320;9.456;2023-07-13T03:50:02;4.68;;;1.60;;
70981;SDS011;58640;51.320;9.456;2023-07-13T03:52:28;6.00;;;1.75;;
70981;SDS011;58640;51.320;9.456;2023-07-13T03:54:53;7.63;;;1.85;;
70981;SDS011;58640;51.320;9.456;2023-07-13T03:57:19;6.13;;;2.00;;
70981;SDS011;58640;51.320;9.456;2023-07-13T03:59:44;7.38;;;2.25;;
70981;SDS011;58640;51.320;9.456;2023-07-13T04:02:09;3.90;;;1.77;;
70981;SDS011;58640;51.320;9.456;2023-07-13T04:04:35;3.67;;;1.50;;
70981;SDS011;58640;51.320;9.456;2023-07-13T04:07:01;4.05;;;2.08;;
70981;SDS011;58640;51.320;9.456;2023-07-13T04:09:26;7.57;;;2.72;;
70981;SDS011;58640;51.320;9.456;2023-07-13T04:11:51;6.00;;;2.00;;
70981;SDS011;58640;51.320;9.456;2023-07-13T04:14:17;4.07;;;1.90;;
70981;SDS011;58640;51.320;9.456;2023-07-13T04:16:42;7.22;;;2.38;;
70981;SDS011;58640;51.320;9.456;2023-07-13T04:19:08;7.43;;;2.17;;
70981;SDS011;58640;51.320;9.456;2023-07-13T04:21:35;7.72;;;2.25;;
70981;SDS011;58640;51.320;9.456;2023-07-13T04:24:01;6.60;;;1.92;;
70981;SDS011;58640;51.320;9.456;2023-07-13T04:26:28;10.75;;;2.15;;
70981;SDS011;58640;51.320;9.456;2023-07-13T04:28:54;5.82;;;1.95;;
70981;SDS011;58640;51.320;9.456;2023-07-13T04:31:20;6.22;;;1.98;;
70981;SDS011;58640;51.320;9.456;2023-07-13T04:33:46;6.80;;;2.17;;
70981;SDS011;58640;51.320;9.456;2023-07-13T04:36:11;8.07;;;2.33;;
70981;SDS011;58640;51.320;9.456;2023-07-13T04:38:37;11.50;;;2.75;;
70981;SDS011;58640;51.320;9.456;2023-07-13T04:41:03;11.40;;;1.98;;
70981;SDS011;58640;51.320;9.456;2023-07-13T04:43:31;4.00;;;1.88;;
70981;SDS011;58640;51.320;9.456;2023-07-13T04:45:57;6.38;;;1.95;;
70981;SDS011;58640;51.320;9.456;2023-07-13T04:48:30;4.65;;;2.05;;
70981;SDS011;58640;51.320;9.456;2023-07-13T04:50:56;7.63;;;2.63;;
70981;SDS011;58640;51.320;9.456;2023-07-13T04:53:22;4.00;;;2.15;;
70981;SDS011;58640;51.320;9.456;2023-07-13T04:55:47;3.15;;;2.22;;
70981;SDS011;58640;51.320;9.456;2023-07-13T04:58:13;7.85;;;1.65;;
70981;SDS011;58640;51.320;9.456;2023-07-13T05:00:38;2.85;;;1.65;;
70981;SDS011;58640;51.320;9.456;2023-07-13T05:03:04;3.40;;;1.90;;
70981;SDS011;58640;51.320;9.456;2023-07-13T05:05:30;6.20;;;1.88;;
70981;SDS011;58640;51.320;9.456;2023-07-13T05:07:56;7.97;;;2.10;;
70981;SDS011;58640;51.320;9.456;2023-07-13T05:10:21;4.05;;;1.92;;
70981;SDS011;58640;51.320;9.456;2023-07-13T05:12:47;9.57;;;2.33;;
70981;SDS011;58640;51.320;9.456;2023-07-13T05:15:12;7.72;;;2.25;;
70981;SDS011;58640;51.320;9.456;2023-07-13T05:17:38;3.55;;;1.73;;
70981;SDS011;58640;51.320;9.456;2023-07-13T05:20:06;2.40;;;1.70;;
70981;SDS011;58640;51.320;9.456;2023-07-13T05:22:33;11.68;;;2.05;;
70981;SDS011;58640;51.320;9.456;2023-07-13T05:25:00;6.28;;;2.08;;
70981;SDS011;58640;51.320;9.456;2023-07-13T05:27:26;5.07;;;1.83;;
70981;SDS011;58640;51.320;9.456;2023-07-13T05:29:51;8.02;;;2.10;;
70981;SDS011;58640;51.320;9.456;2023-07-13T05:32:17;5.75;;;2.40;;
70981;SDS011;58640;51.320;9.456;2023-07-13T05:34:43;4.22;;;1.83;;
70981;SDS011;58640;51.320;9.456;2023-07-13T05:37:09;7.82;;;2.17;;
70981;SDS011;58640;51.320;9.456;2023-07-13T05:39:34;6.50;;;2.13;;
70981;SDS011;58640;51.320;9.456;2023-07-13T05:41:59;5.97;;;1.83;;
70981;SDS011;58640;51.320;9.456;2023-07-13T05:44:25;3.83;;;1.63;;
70981;SDS011;58640;51.320;9.456;2023-07-13T05:46:50;4.15;;;1.67;;
70981;SDS011;58640;51.320;9.456;2023-07-13T05:49:15;4.78;;;1.65;;
70981;SDS011;58640;51.320;9.456;2023-07-13T05:51:41;3.92;;;1.67;;
70981;SDS011;58640;51.320;9.456;2023-07-13T05:54:06;6.28;;;1.85;;
70981;SDS011;58640;51.320;9.456;2023-07-13T05:56:31;7.05;;;1.90;;
70981;SDS011;58640;51.320;9.456;2023-07-13T05:58:57;4.75;;;1.20;;
70981;SDS011;58640;51.320;9.456;2023-07-13T06:01:22;6.30;;;1.60;;
70981;SDS011;58640;51.320;9.456;2023-07-13T06:03:48;6.57;;;1.75;;
70981;SDS011;58640;51.320;9.456;2023-07-13T06:06:14;3.22;;;1.45;;
70981;SDS011;58640;51.320;9.456;2023-07-13T06:08:40;5.05;;;1.13;;
70981;SDS011;58640;51.320;9.456;2023-07-13T06:13:41;5.05;;;1.63;;
70981;SDS011;58640;51.320;9.456;2023-07-13T06:16:09;3.33;;;0.95;;
70981;SDS011;58640;51.320;9.456;2023-07-13T06:18:36;6.72;;;1.10;;
70981;SDS011;58640;51.320;9.456;2023-07-13T06:21:13;3.30;;;1.35;;
70981;SDS011;58640;51.320;9.456;2023-07-13T06:24:04;5.43;;;1.33;;
70981;SDS011;58640;51.320;9.456;2023-07-13T06:31:56;2.88;;;0.98;;
70981;SDS011;58640;51.320;9.456;2023-07-13T06:40:08;3.38;;;0.90;;
70981;SDS011;58640;51.320;9.456;2023-07-13T06:42:37;4.85;;;0.90;;
70981;SDS011;58640;51.320;9.456;2023-07-13T06:45:03;5.85;;;0.95;;
70981;SDS011;58640;51.320;9.456;2023-07-13T06:47:29;4.47;;;1.40;;
70981;SDS011;58640;51.320;9.456;2023-07-13T06:49:54;5.55;;;0.80;;
70981;SDS011;58640;51.320;9.456;2023-07-13T06:52:20;3.28;;;0.93;;
70981;SDS011;58640;51.320;9.456;2023-07-13T06:54:45;2.97;;;0.85;;
70981;SDS011;58640;51.320;9.456;2023-07-13T06:57:11;3.60;;;0.85;;
70981;SDS011;58640;51.320;9.456;2023-07-13T06:59:38;2.72;;;0.73;;
70981;SDS011;58640;51.320;9.456;2023-07-13T07:02:04;5.32;;;1.05;;
70981;SDS011;58640;51.320;9.456;2023-07-13T07:04:30;4.25;;;0.85;;
70981;SDS011;58640;51.320;9.456;2023-07-13T07:06:55;2.20;;;0.60;;
70981;SDS011;58640;51.320;9.456;2023-07-13T07:09:20;4.38;;;1.20;;
70981;SDS011;58640;51.320;9.456;2023-07-13T07:11:46;1.70;;;0.68;;
70981;SDS011;58640;51.320;9.456;2023-07-13T07:14:12;4.43;;;1.00;;
70981;SDS011;58640;51.320;9.456;2023-07-13T07:16:44;2.30;;;0.70;;
70981;SDS011;58640;51.320;9.456;2023-07-13T07:19:10;1.77;;;0.68;;
70981;SDS011;58640;51.320;9.456;2023-07-13T07:21:40;2.80;;;0.77;;
70981;SDS011;58640;51.320;9.456;2023-07-13T07:24:06;2.08;;;0.57;;
70981;SDS011;58640;51.320;9.456;2023-07-13T07:26:35;6.05;;;0.88;;
70981;SDS011;58640;51.320;9.456;2023-07-13T07:29:03;3.08;;;0.73;;
70981;SDS011;58640;51.320;9.456;2023-07-13T07:31:37;3.40;;;0.50;;
70981;SDS011;58640;51.320;9.456;2023-07-13T07:34:10;2.67;;;0.35;;
70981;SDS011;58640;51.320;9.456;2023-07-13T07:36:46;3.63;;;0.77;;
70981;SDS011;58640;51.320;9.456;2023-07-13T07:39:19;4.22;;;0.60;;
70981;SDS011;58640;51.320;9.456;2023-07-13T07:41:57;1.67;;;0.50;;
70981;SDS011;58640;51.320;9.456;2023-07-13T07:44:26;1.95;;;0.45;;
70981;SDS011;58640;51.320;9.456;2023-07-13T07:46:52;2.88;;;0.75;;
70981;SDS011;58640;51.320;9.456;2023-07-13T07:49:17;3.22;;;0.88;;
70981;SDS011;58640;51.320;9.456;2023-07-13T07:51:45;3.38;;;0.75;;
70981;SDS011;58640;51.320;9.456;2023-07-13T07:54:13;3.55;;;0.90;;
70981;SDS011;58640;51.320;9.456;2023-07-13T07:56:45;3.85;;;0.52;;
70981;SDS011;58640;51.320;9.456;2023-07-13T07:59:11;3.75;;;1.35;;
70981;SDS011;58640;51.320;9.456;2023-07-13T08:01:38;0.57;;;0.40;;
70981;SDS011;58640;51.320;9.456;2023-07-13T08:04:07;5.00;;;0.80;;
70981;SDS011;58640;51.320;9.456;2023-07-13T08:06:35;0.95;;;0.50;;
70981;SDS011;58640;51.320;9.456;2023-07-13T08:09:00;2.40;;;0.50;;
70981;SDS011;58640;51.320;9.456;2023-07-13T08:11:28;4.13;;;0.60;;
70981;SDS011;58640;51.320;9.456;2023-07-13T08:14:03;2.00;;;0.50;;
70981;SDS011;58640;51.320;9.456;2023-07-13T08:16:42;2.53;;;0.52;;
70981;SDS011;58640;51.320;9.456;2023-07-13T08:19:13;5.07;;;0.68;;
70981;SDS011;58640;51.320;9.456;2023-07-13T08:21:45;2.60;;;0.60;;
70981;SDS011;58640;51.320;9.456;2023-07-13T08:24:15;3.10;;;0.70;;
70981;SDS011;58640;51.320;9.456;2023-07-13T08:26:53;0.75;;;0.50;;
70981;SDS011;58640;51.320;9.456;2023-07-13T08:29:21;1.23;;;0.50;;
70981;SDS011;58640;51.320;9.456;2023-07-13T08:31:57;1.73;;;0.50;;
70981;SDS011;58640;51.320;9.456;2023-07-13T08:34:36;2.50;;;0.70;;
70981;SDS011;58640;51.320;9.456;2023-07-13T08:37:09;3.30;;;0.68;;
70981;SDS011;58640;51.320;9.456;2023-07-13T08:39:34;1.83;;;0.60;;
70981;SDS011;58640;51.320;9.456;2023-07-13T08:42:01;2.13;;;0.60;;
70981;SDS011;58640;51.320;9.456;2023-07-13T08:47:30;2.05;;;0.50;;
70981;SDS011;58640;51.320;9.456;2023-07-13T08:50:33;1.33;;;0.40;;
70981;SDS011;58640;51.320;9.456;2023-07-13T08:53:23;1.10;;;0.50;;
70981;SDS011;58640;51.320;9.456;2023-07-13T08:56:29;3.60;;;0.75;;
70981;SDS011;58640;51.320;9.456;2023-07-13T08:59:13;1.58;;;0.32;;
70981;SDS011;58640;51.320;9.456;2023-07-13T09:04:36;4.50;;;0.60;;
70981;SDS011;58640;51.320;9.456;2023-07-13T09:11:02;2.42;;;0.55;;
70981;SDS011;58640;51.320;9.456;2023-07-13T09:14:06;2.20;;;0.57;;
70981;SDS011;58640;51.320;9.456;2023-07-13T09:16:56;0.73;;;0.50;;
70981;SDS011;58640;51.320;9.456;2023-07-13T09:19:26;4.88;;;0.70;;
70981;SDS011;58640;51.320;9.456;2023-07-13T09:22:03;1.35;;;0.47;;
70981;SDS011;58640;51.320;9.456;2023-07-13T09:24:53;1.23;;;0.50;;
70981;SDS011;58640;51.320;9.456;2023-07-13T09:27:33;1.67;;;0.82;;
70981;SDS011;58640;51.320;9.456;2023-07-13T09:32:47;1.52;;;0.50;;
70981;SDS011;58640;51.320;9.456;2023-07-13T09:35:20;1.90;;;0.50;;
70981;SDS011;58640;51.320;9.456;2023-07-13T09:38:04;1.95;;;0.60;;
70981;SDS011;58640;51.320;9.456;2023-07-13T09:43:34;1.13;;;0.50;;
70981;SDS011;58640;51.320;9.456;2023-07-13T09:46:00;3.65;;;0.65;;
70981;SDS011;58640;51.320;9.456;2023-07-13T09:48:25;1.02;;;0.50;;
70981;SDS011;58640;51.320;9.456;2023-07-13T09:51:01;2.08;;;0.63;;
70981;SDS011;58640;51.320;9.456;2023-07-13T09:53:45;3.80;;;0.75;;
70981;SDS011;58640;51.320;9.456;2023-07-13T09:56:20;1.95;;;0.63;;
70981;SDS011;58640;51.320;9.456;2023-07-13T09:58:47;3.25;;;0.70;;
70981;SDS011;58640;51.320;9.456;2023-07-13T10:01:13;4.50;;;0.68;;
70981;SDS011;58640;51.320;9.456;2023-07-13T10:03:39;3.47;;;0.63;;
70981;SDS011;58640;51.320;9.456;2023-07-13T10:06:17;2.30;;;0.63;;
70981;SDS011;58640;51.320;9.456;2023-07-13T10:08:44;4.25;;;0.75;;
70981;SDS011;58640;51.320;9.456;2023-07-13T10:11:17;4.47;;;0.70;;
70981;SDS011;58640;51.320;9.456;2023-07-13T10:13:57;3.53;;;0.75;;
70981;SDS011;58640;51.320;9.456;2023-07-13T10:16:33;3.08;;;0.57;;
70981;SDS011;58640;51.320;9.456;2023-07-13T10:19:02;1.95;;;0.57;;
70981;SDS011;58640;51.320;9.456;2023-07-13T10:21:56;1.55;;;0.50;;
70981;SDS011;58640;51.320;9.456;2023-07-13T10:24:32;0.77;;;0.52;;
70981;SDS011;58640;51.320;9.456;2023-07-13T10:27:05;7.75;;;3.75;;
70981;SDS011;58640;51.320;9.456;2023-07-13T10:32:23;4.75;;;0.50;;
70981;SDS011;58640;51.320;9.456;2023-07-13T10:34:50;3.42;;;0.82;;
70981;SDS011;58640;51.320;9.456;2023-07-13T10:37:25;2.42;;;0.70;;
70981;SDS011;58640;51.320;9.456;2023-07-13T10:39:53;3.40;;;0.68;;
70981;SDS011;58640;51.320;9.456;2023-07-13T10:42:26;2.08;;;0.55;;
70981;SDS011;58640;51.320;9.456;2023-07-13T10:44:56;5.25;;;0.90;;
70981;SDS011;58640;51.320;9.456;2023-07-13T10:47:23;2.10;;;0.80;;
70981;SDS011;58640;51.320;9.456;2023-07-13T10:49:50;3.60;;;0.70;;
70981;SDS011;58640;51.320;9.456;2023-07-13T10:57:59;3.00;;;0.70;;
70981;SDS011;58640;51.320;9.456;2023-07-13T11:00:26;1.77;;;0.70;;
70981;SDS011;58640;51.320;9.456;2023-07-13T11:02:58;1.60;;;0.80;;
70981;SDS011;58640;51.320;9.456;2023-07-13T11:05:32;2.05;;;0.47;;
70981;SDS011;58640;51.320;9.456;2023-07-13T11:11:02;1.77;;;0.80;;
70981;SDS011;58640;51.320;9.456;2023-07-13T11:16:13;1.65;;;0.70;;
70981;SDS011;58640;51.320;9.456;2023-07-13T11:18:47;2.25;;;0.77;;
70981;SDS011;58640;51.320;9.456;2023-07-13T11:21:20;1.48;;;0.60;;
70981;SDS011;58640;51.320;9.456;2023-07-13T11:23:51;0.63;;;0.45;;
70981;SDS011;58640;51.320;9.456;2023-07-13T11:32:00;2.13;;;0.88;;
70981;SDS011;58640;51.320;9.456;2023-07-13T11:34:42;2.55;;;0.70;;
70981;SDS011;58640;51.320;9.456;2023-07-13T11:37:14;3.33;;;1.00;;
70981;SDS011;58640;51.320;9.456;2023-07-13T11:39:43;0.95;;;0.50;;
70981;SDS011;58640;51.320;9.456;2023-07-13T11:42:12;1.95;;;0.50;;
70981;SDS011;58640;51.320;9.456;2023-07-13T11:44:47;0.75;;;0.75;;
70981;SDS011;58640;51.320;9.456;2023-07-13T11:47:16;2.85;;;0.55;;
70981;SDS011;58640;51.320;9.456;2023-07-13T11:49:48;4.70;;;0.77;;
70981;SDS011;58640;51.320;9.456;2023-07-13T11:52:20;0.57;;;0.45;;
70981;SDS011;58640;51.320;9.456;2023-07-13T11:55:00;3.08;;;0.40;;
70981;SDS011;58640;51.320;9.456;2023-07-13T11:57:28;0.50;;;0.50;;
70981;SDS011;58640;51.320;9.456;2023-07-13T11:59:56;1.13;;;0.50;;
70981;SDS011;58640;51.320;9.456;2023-07-13T12:04:52;1.42;;;0.55;;
70981;SDS011;58640;51.320;9.456;2023-07-13T12:07:18;0.52;;;0.50;;
70981;SDS011;58640;51.320;9.456;2023-07-13T12:09:44;3.00;;;0.50;;
70981;SDS011;58640;51.320;9.456;2023-07-13T12:12:13;1.30;;;0.50;;
70981;SDS011;58640;51.320;9.456;2023-07-13T12:14:44;2.58;;;0.50;;
70981;SDS011;58640;51.320;9.456;2023-07-13T12:17:19;0.82;;;0.43;;
70981;SDS011;58640;51.320;9.456;2023-07-13T12:19:47;0.75;;;0.32;;
70981;SDS011;58640;51.320;9.456;2023-07-13T12:22:14;0.95;;;0.47;;
70981;SDS011;58640;51.320;9.456;2023-07-13T12:24:41;1.63;;;0.50;;
70981;SDS011;58640;51.320;9.456;2023-07-13T12:27:19;0.65;;;0.30;;
70981;SDS011;58640;51.320;9.456;2023-07-13T12:29:59;0.55;;;0.50;;
70981;SDS011;58640;51.320;9.456;2023-07-13T12:32:27;3.58;;;1.20;;
70981;SDS011;58640;51.320;9.456;2023-07-13T12:34:54;1.85;;;0.70;;
70981;SDS011;58640;51.320;9.456;2023-07-13T12:37:21;1.63;;;0.65;;
70981;SDS011;58640;51.320;9.456;2023-07-13T12:39:48;1.77;;;1.13;;
70981;SDS011;58640;51.320;9.456;2023-07-13T12:44:53;5.50;;;1.17;;
70981;SDS011;58640;51.320;9.456;2023-07-13T12:47:29;2.33;;;0.80;;
70981;SDS011;58640;51.320;9.456;2023-07-13T12:49:59;0.98;;;0.50;;
70981;SDS011;58640;51.320;9.456;2023-07-13T12:52:30;1.10;;;0.80;;
70981;SDS011;58640;51.320;9.456;2023-07-13T12:55:03;2.47;;;0.70;;
70981;SDS011;58640;51.320;9.456;2023-07-13T12:57:31;2.58;;;0.73;;
70981;SDS011;58640;51.320;9.456;2023-07-13T12:59:56;0.57;;;0.40;;
70981;SDS011;58640;51.320;9.456;2023-07-13T13:02:26;3.30;;;0.93;;
70981;SDS011;58640;51.320;9.456;2023-07-13T13:04:56;0.80;;;0.50;;
70981;SDS011;58640;51.320;9.456;2023-07-13T13:07:22;3.63;;;0.60;;
70981;SDS011;58640;51.320;9.456;2023-07-13T13:09:48;1.25;;;0.60;;
70981;SDS011;58640;51.320;9.456;2023-07-13T13:12:14;2.08;;;0.70;;
70981;SDS011;58640;51.320;9.456;2023-07-13T13:14:40;1.60;;;0.50;;
70981;SDS011;58640;51.320;9.456;2023-07-13T13:17:11;2.60;;;0.70;;
70981;SDS011;58640;51.320;9.456;2023-07-13T13:19:44;2.78;;;0.80;;
70981;SDS011;58640;51.320;9.456;2023-07-13T13:22:10;1.10;;;0.70;;
70981;SDS011;58640;51.320;9.456;2023-07-13T13:24:36;7.35;;;0.70;;
70981;SDS011;58640;51.320;9.456;2023-07-13T13:27:01;1.15;;;0.73;;
70981;SDS011;58640;51.320;9.456;2023-07-13T13:29:27;2.63;;;1.67;;
70981;SDS011;58640;51.320;9.456;2023-07-13T13:31:56;3.22;;;1.15;;
70981;SDS011;58640;51.320;9.456;2023-07-13T13:34:21;1.60;;;0.68;;
70981;SDS011;58640;51.320;9.456;2023-07-13T13:36:49;1.88;;;0.70;;
70981;SDS011;58640;51.320;9.456;2023-07-13T13:39:18;5.55;;;0.90;;
70981;SDS011;58640;51.320;9.456;2023-07-13T13:41:43;4.25;;;0.70;;
70981;SDS011;58640;51.320;9.456;2023-07-13T13:44:09;3.03;;;0.95;;
70981;SDS011;58640;51.320;9.456;2023-07-13T13:46:35;1.73;;;0.68;;
70981;SDS011;58640;51.320;9.456;2023-07-13T13:49:01;1.63;;;0.90;;
70981;SDS011;58640;51.320;9.456;2023-07-13T13:51:27;1.45;;;0.73;;
70981;SDS011;58640;51.320;9.456;2023-07-13T13:53:54;0.95;;;0.50;;
70981;SDS011;58640;51.320;9.456;2023-07-13T13:56:19;2.95;;;0.80;;
70981;SDS011;58640;51.320;9.456;2023-07-13T13:58:45;1.10;;;0.93;;
70981;SDS011;58640;51.320;9.456;2023-07-13T14:01:12;1.13;;;0.82;;
70981;SDS011;58640;51.320;9.456;2023-07-13T14:03:39;2.38;;;0.70;;
70981;SDS011;58640;51.320;9.456;2023-07-13T14:06:04;1.30;;;0.90;;
70981;SDS011;58640;51.320;9.456;2023-07-13T14:08:30;4.03;;;0.70;;
70981;SDS011;58640;51.320;9.456;2023-07-13T14:10:56;3.47;;;1.17;;
70981;SDS011;58640;51.320;9.456;2023-07-13T14:13:27;1.85;;;0.88;;
70981;SDS011;58640;51.320;9.456;2023-07-13T14:15:55;5.38;;;0.88;;
70981;SDS011;58640;51.320;9.456;2023-07-13T14:18:21;2.08;;;0.65;;
70981;SDS011;58640;51.320;9.456;2023-07-13T14:20:47;1.67;;;0.55;;
70981;SDS011;58640;51.320;9.456;2023-07-13T14:23:13;1.95;;;0.73;;
70981;SDS011;58640;51.320;9.456;2023-07-13T14:25:40;1.67;;;0.80;;
70981;SDS011;58640;51.320;9.456;2023-07-13T14:28:18;2.08;;;1.15;;
70981;SDS011;58640;51.320;9.456;2023-07-13T14:30:44;1.73;;;0.90;;
70981;SDS011;58640;51.320;9.456;2023-07-13T14:33:10;3.17;;;1.25;;
70981;SDS011;58640;51.320;9.456;2023-07-13T14:35:36;3.67;;;0.95;;
70981;SDS011;58640;51.320;9.456;2023-07-13T14:38:02;4.18;;;1.00;;
70981;SDS011;58640;51.320;9.456;2023-07-13T14:40:29;4.32;;;0.70;;
70981;SDS011;58640;51.320;9.456;2023-07-13T14:42:56;0.88;;;0.40;;
70981;SDS011;58640;51.320;9.456;2023-07-13T14:45:21;1.27;;;0.63;;
70981;SDS011;58640;51.320;9.456;2023-07-13T14:47:48;4.72;;;0.80;;
70981;SDS011;58640;51.320;9.456;2023-07-13T14:50:14;6.68;;;0.85;;
70981;SDS011;58640;51.320;9.456;2023-07-13T14:52:42;1.25;;;0.80;;
70981;SDS011;58640;51.320;9.456;2023-07-13T14:55:13;1.63;;;0.80;;
70981;SDS011;58640;51.320;9.456;2023-07-13T14:57:40;2.22;;;0.93;;
70981;SDS011;58640;51.320;9.456;2023-07-13T15:00:12;2.63;;;0.80;;
70981;SDS011;58640;51.320;9.456;2023-07-13T15:02:41;4.85;;;0.90;;
70981;SDS011;58640;51.320;9.456;2023-07-13T15:05:13;2.10;;;0.63;;
70981;SDS011;58640;51.320;9.456;2023-07-13T15:07:43;1.70;;;0.70;;
70981;SDS011;58640;51.320;9.456;2023-07-13T15:10:12;4.13;;;0.70;;
70981;SDS011;58640;51.320;9.456;2023-07-13T15:12:39;1.98;;;0.70;;
70981;SDS011;58640;51.320;9.456;2023-07-13T15:15:04;1.25;;;0.60;;
70981;SDS011;58640;51.320;9.456;2023-07-13T15:20:02;1.05;;;0.52;;
70981;SDS011;58640;51.320;9.456;2023-07-13T15:22:31;2.33;;;0.70;;
70981;SDS011;58640;51.320;9.456;2023-07-13T15:24:56;4.68;;;0.60;;
70981;SDS011;58640;51.320;9.456;2023-07-13T15:27:22;1.58;;;0.63;;
70981;SDS011;58640;51.320;9.456;2023-07-13T15:29:47;2.08;;;0.60;;
70981;SDS011;58640;51.320;9.456;2023-07-13T15:32:13;1.95;;;0.90;;
70981;SDS011;58640;51.320;9.456;2023-07-13T15:34:39;1.58;;;0.50;;
70981;SDS011;58640;51.320;9.456;2023-07-13T15:37:13;2.95;;;0.82;;
70981;SDS011;58640;51.320;9.456;2023-07-13T15:39:40;0.75;;;0.75;;
70981;SDS011;58640;51.320;9.456;2023-07-13T15:42:07;2.63;;;0.60;;
70981;SDS011;58640;51.320;9.456;2023-07-13T15:44:39;2.53;;;0.63;;
70981;SDS011;58640;51.320;9.456;2023-07-13T15:47:04;1.70;;;0.65;;
70981;SDS011;58640;51.320;9.456;2023-07-13T15:49:31;2.38;;;1.08;;
70981;SDS011;58640;51.320;9.456;2023-07-13T15:51:57;0.90;;;0.63;;